Terminal Aerodrome Forecast
Issued by NWS Paducah, KY

Home | Current Version | Previous Version | Text Only | Print | Product List | Glossary Off
Versions: 1 2 3 4 5 6 7 8 9 10 11 12 13 14 15 16 17 18 19 20 21 22

756
FTUS43 KPAH 191127
TAFPAH
TAF
KPAH 191127Z 1912/2012 18008G18KT P6SM VCSH BKN015
      TEMPO 1913/1915 -RA
     FM191600 20015G25KT P6SM BKN020
     FM192200 19013G23KT P6SM SCT030 BKN080
     FM200200 18012G22KT P6SM SCT040 BKN100 WS020/20045KT=

USA.gov is the U.S. government's official web portal to all federal, state and local government web resources and services.